createdAt,value
2017-03-05T00:00:22.950Z,988.74
2017-03-05T00:01:32.401Z,988.76
2017-03-05T00:02:41.451Z,988.72
2017-03-05T00:03:50.857Z,988.75
2017-03-05T00:04:59.960Z,988.74
2017-03-05T00:06:09.360Z,988.77
2017-03-05T00:07:18.676Z,988.79
2017-03-05T00:08:27.755Z,988.78
2017-03-05T00:09:36.885Z,988.8
2017-03-05T00:10:45.888Z,988.84
2017-03-05T00:11:55.098Z,988.85
2017-03-05T00:13:04.446Z,988.83
2017-03-05T00:14:13.435Z,988.84
2017-03-05T00:15:23.008Z,988.83
2017-03-05T00:16:32.906Z,988.89
2017-03-05T00:17:41.906Z,988.85
2017-03-05T00:18:51.344Z,988.92
2017-03-05T00:20:00.358Z,988.92
2017-03-05T00:21:09.515Z,989.01
2017-03-05T00:22:18.523Z,989.03
2017-03-05T00:23:27.587Z,989.06
2017-03-05T00:24:36.919Z,989.08
2017-03-05T00:25:46.653Z,989.04
2017-03-05T00:26:56.007Z,989.08
2017-03-05T00:28:05.222Z,989.04
2017-03-05T00:29:14.289Z,989.07
2017-03-05T00:30:23.724Z,989.05
2017-03-05T00:31:32.837Z,989.06
2017-03-05T00:32:42.014Z,989.08
2017-03-05T00:33:51.086Z,989.05
2017-03-05T00:35:00.064Z,989.1
2017-03-05T00:36:09.408Z,989.09
2017-03-05T00:37:18.547Z,989.17
2017-03-05T00:38:27.586Z,989.11
2017-03-05T00:39:36.648Z,989.13
2017-03-05T00:40:45.848Z,989.08
2017-03-05T00:41:55.172Z,989.12
2017-03-05T00:43:04.155Z,989.21
2017-03-05T00:44:13.228Z,989.26
2017-03-05T00:45:22.396Z,989.28
2017-03-05T00:46:31.451Z,989.35
2017-03-05T00:47:40.820Z,989.33
2017-03-05T00:48:49.939Z,989.44
2017-03-05T00:49:59.010Z,989.45
2017-03-05T00:51:08.099Z,989.46
2017-03-05T00:52:17.123Z,989.52
2017-03-05T00:53:26.436Z,989.49
2017-03-05T00:54:35.418Z,989.51
2017-03-05T00:55:44.503Z,989.5
2017-03-05T00:56:53.483Z,989.5
2017-03-05T00:58:02.559Z,989.51
2017-03-05T00:59:11.896Z,989.5
2017-03-05T01:00:20.986Z,989.55
2017-03-05T01:01:29.986Z,989.55
2017-03-05T01:02:38.966Z,989.58
2017-03-05T01:03:48.057Z,989.53
2017-03-05T01:04:57.365Z,989.57
2017-03-05T01:06:06.704Z,989.57
2017-03-05T01:07:15.883Z,989.6
2017-03-05T01:08:24.976Z,989.6
2017-03-05T01:09:34.048Z,989.69
2017-03-05T01:10:43.367Z,989.71
2017-03-05T01:11:52.383Z,989.74
2017-03-05T01:13:01.416Z,989.79
2017-03-05T01:14:10.836Z,989.77
2017-03-05T01:15:20.112Z,989.73
2017-03-05T01:16:29.437Z,989.76
2017-03-05T01:17:38.441Z,989.74
2017-03-05T01:18:47.426Z,989.74
2017-03-05T01:19:56.435Z,989.74
2017-03-05T01:21:05.550Z,989.69
2017-03-05T01:22:15.172Z,989.7
2017-03-05T01:23:24.256Z,989.7
2017-03-05T01:24:33.256Z,989.74
2017-03-05T01:25:42.261Z,989.8
2017-03-05T01:26:51.368Z,989.82
2017-03-05T01:28:00.696Z,989.86
2017-03-05T01:29:09.851Z,989.82
2017-03-05T01:30:19.721Z,989.94
2017-03-05T01:31:28.711Z,989.92
2017-03-05T01:32:37.695Z,989.98
2017-03-05T01:33:47.002Z,989.99
2017-03-05T01:34:56.036Z,989.94
2017-03-05T01:36:05.036Z,989.97
2017-03-05T01:37:14.028Z,989.98
2017-03-05T01:38:23.003Z,990.01
2017-03-05T01:39:32.257Z,990.02
2017-03-05T01:40:41.323Z,989.98
2017-03-05T01:41:50.319Z,990.03
2017-03-05T01:42:59.405Z,990.05
2017-03-05T01:44:08.459Z,990.01
2017-03-05T01:45:17.743Z,990.09
2017-03-05T01:46:26.716Z,990.1
2017-03-05T01:47:35.709Z,990.09
2017-03-05T01:48:44.706Z,990.05
2017-03-05T01:49:53.709Z,990.08
2017-03-05T01:51:03.030Z,990.21
2017-03-05T01:52:12.035Z,990.17
2017-03-05T01:53:21.024Z,990.13
2017-03-05T01:54:30.027Z,990.16
2017-03-05T01:55:39.020Z,990.17
2017-03-05T01:56:48.311Z,990.18
2017-03-05T01:57:57.701Z,990.12
2017-03-05T01:59:06.689Z,990.07
2017-03-05T02:00:15.845Z,990
2017-03-05T02:01:25.017Z,990
2017-03-05T02:02:34.256Z,989.94
2017-03-05T02:03:43.326Z,990.06
2017-03-05T02:04:52.310Z,990.03
2017-03-05T02:06:01.720Z,990.08
2017-03-05T02:07:10.695Z,990.15
2017-03-05T02:08:20.536Z,990.15
2017-03-05T02:09:29.514Z,990.19
2017-03-05T02:10:38.512Z,990.26
2017-03-05T02:11:47.497Z,990.23
2017-03-05T02:12:56.486Z,990.23
2017-03-05T02:14:05.741Z,990.29
2017-03-05T02:15:14.810Z,990.28
2017-03-05T02:16:23.797Z,990.33
2017-03-05T02:17:32.790Z,990.39
2017-03-05T02:18:41.861Z,990.38
2017-03-05T02:19:51.107Z,990.38
2017-03-05T02:21:00.113Z,990.39
2017-03-05T02:22:09.087Z,990.46
2017-03-05T02:23:18.071Z,990.43
2017-03-05T02:24:27.157Z,990.48
2017-03-05T02:25:36.401Z,990.59
2017-03-05T02:26:45.388Z,990.59
2017-03-05T02:27:54.381Z,990.62
2017-03-05T02:29:03.365Z,990.65
2017-03-05T02:30:12.348Z,990.66
2017-03-05T02:31:21.667Z,990.67
2017-03-05T02:32:30.654Z,990.65
2017-03-05T02:33:39.635Z,990.67
2017-03-05T02:34:48.631Z,990.68
2017-03-05T02:35:57.633Z,990.64
2017-03-05T02:37:06.915Z,990.74
2017-03-05T02:38:15.895Z,990.74
2017-03-05T02:39:24.913Z,990.78
2017-03-05T02:40:33.899Z,990.76
2017-03-05T02:41:43.288Z,990.71
2017-03-05T02:42:52.587Z,990.7
2017-03-05T02:44:01.985Z,990.61
2017-03-05T02:45:10.991Z,990.6
2017-03-05T02:46:19.968Z,990.61
2017-03-05T02:47:28.961Z,990.64
2017-03-05T02:48:38.236Z,990.56
2017-03-05T02:49:47.211Z,990.6
2017-03-05T02:50:56.212Z,990.7
2017-03-05T02:52:05.202Z,990.74
2017-03-05T02:53:14.202Z,990.78
2017-03-05T02:54:23.490Z,990.8
2017-03-05T02:55:32.479Z,990.79
2017-03-05T02:56:41.491Z,990.81
2017-03-05T02:57:50.647Z,990.82
2017-03-05T02:58:59.639Z,990.93
2017-03-05T03:00:08.959Z,990.93
2017-03-05T03:01:17.953Z,991
2017-03-05T03:02:27.375Z,991.03
2017-03-05T03:03:36.375Z,991
2017-03-05T03:04:45.438Z,990.97
2017-03-05T03:05:54.694Z,991.01
2017-03-05T03:07:04.119Z,991.02
2017-03-05T03:08:13.100Z,990.99
2017-03-05T03:09:22.093Z,991.03
2017-03-05T03:10:31.095Z,991.03
2017-03-05T03:11:40.323Z,991.04
2017-03-05T03:12:49.310Z,991.07
2017-03-05T03:13:58.294Z,991.07
2017-03-05T03:15:07.271Z,991.09
2017-03-05T03:16:16.281Z,991.14
2017-03-05T03:17:25.555Z,991.07
2017-03-05T03:18:34.553Z,991.07
2017-03-05T03:19:43.554Z,991.08
2017-03-05T03:20:52.541Z,991.07
2017-03-05T03:22:01.533Z,991.07
2017-03-05T03:23:10.837Z,991.05
2017-03-05T03:24:19.828Z,991.03
2017-03-05T03:25:28.819Z,991.02
2017-03-05T03:26:37.813Z,991.04
2017-03-05T03:27:46.802Z,991.08
2017-03-05T03:28:56.171Z,991.15
2017-03-05T03:30:05.154Z,991.2
2017-03-05T03:31:14.143Z,991.3
2017-03-05T03:32:23.145Z,991.31
2017-03-05T03:33:32.137Z,991.36
2017-03-05T03:34:41.440Z,991.38
2017-03-05T03:35:50.523Z,991.39
2017-03-05T03:36:59.523Z,991.39
2017-03-05T03:38:08.512Z,991.47
2017-03-05T03:39:17.512Z,991.46
2017-03-05T03:40:26.751Z,991.44
2017-03-05T03:41:35.760Z,991.46
2017-03-05T03:42:44.844Z,991.47
2017-03-05T03:43:53.832Z,991.53
2017-03-05T03:45:02.818Z,991.62
2017-03-05T03:46:12.093Z,991.71
2017-03-05T03:47:21.091Z,991.79
2017-03-05T03:48:30.098Z,991.8
2017-03-05T03:49:39.121Z,991.85
2017-03-05T03:50:48.136Z,991.93
2017-03-05T03:51:57.369Z,991.97
2017-03-05T03:53:06.388Z,992.1
2017-03-05T03:54:15.364Z,992.11
2017-03-05T03:55:24.349Z,992.14
2017-03-05T03:56:33.346Z,992.15
2017-03-05T03:57:42.642Z,992.12
2017-03-05T03:58:51.717Z,992.15
2017-03-05T04:00:00.708Z,992.23
2017-03-05T04:01:09.699Z,992.18
2017-03-05T04:02:18.687Z,992.21
2017-03-05T04:03:27.975Z,992.23
2017-03-05T04:04:36.970Z,992.22
2017-03-05T04:05:45.965Z,992.21
2017-03-05T04:06:55.052Z,992.23
2017-03-05T04:08:04.129Z,992.3
2017-03-05T04:09:13.410Z,992.31
2017-03-05T04:10:22.825Z,992.29
2017-03-05T04:11:31.810Z,992.35
2017-03-05T04:12:40.837Z,992.34
2017-03-05T04:13:49.820Z,992.37
2017-03-05T04:14:59.104Z,992.38
2017-03-05T04:16:08.130Z,992.42
2017-03-05T04:17:17.128Z,992.51
2017-03-05T04:18:26.538Z,992.48
2017-03-05T04:19:35.530Z,992.48
2017-03-05T04:20:44.866Z,992.61
2017-03-05T04:21:53.853Z,992.62
2017-03-05T04:23:02.858Z,992.58
2017-03-05T04:24:11.842Z,992.61
2017-03-05T04:25:20.920Z,992.61
2017-03-05T04:26:30.322Z,992.68
2017-03-05T04:27:39.302Z,992.75
2017-03-05T04:28:48.297Z,992.74
2017-03-05T04:29:57.279Z,992.81
2017-03-05T04:31:06.257Z,992.86
2017-03-05T04:32:15.541Z,992.9
2017-03-05T04:33:24.528Z,992.92
2017-03-05T04:34:33.518Z,992.93
2017-03-05T04:35:42.518Z,992.94
2017-03-05T04:36:51.507Z,992.93
2017-03-05T04:38:01.202Z,992.94
2017-03-05T04:39:10.180Z,992.94
2017-03-05T04:40:19.168Z,992.93
2017-03-05T04:41:28.159Z,992.9
2017-03-05T04:42:37.153Z,992.92
2017-03-05T04:43:46.806Z,992.91
2017-03-05T04:44:55.808Z,992.88
2017-03-05T04:46:04.807Z,992.91
2017-03-05T04:47:13.787Z,992.92
2017-03-05T04:48:22.941Z,992.89
2017-03-05T04:49:32.203Z,992.87
2017-03-05T04:50:41.190Z,992.9
2017-03-05T04:51:50.178Z,992.91
2017-03-05T04:52:59.264Z,992.95
2017-03-05T04:54:08.268Z,993.01
2017-03-05T04:55:17.505Z,993
2017-03-05T04:56:26.493Z,993.01
2017-03-05T04:57:35.498Z,993.02
2017-03-05T04:58:44.479Z,993.05
2017-03-05T04:59:53.483Z,993.04
2017-03-05T05:01:02.782Z,993.07
2017-03-05T05:02:11.856Z,993.07
2017-03-05T05:03:20.941Z,993.08
2017-03-05T05:04:29.925Z,993.13
2017-03-05T05:05:38.922Z,993.11
2017-03-05T05:06:48.216Z,993.15
2017-03-05T05:07:57.686Z,993.09
2017-03-05T05:09:07.410Z,993.17
2017-03-05T05:10:16.407Z,993.17
2017-03-05T05:11:25.385Z,993.19
2017-03-05T05:12:34.773Z,993.22
2017-03-05T05:13:44.158Z,993.25
2017-03-05T05:14:53.137Z,993.25
2017-03-05T05:16:02.130Z,993.25
2017-03-05T05:17:11.126Z,993.24
2017-03-05T05:18:20.431Z,993.27
2017-03-05T05:19:29.413Z,993.24
2017-03-05T05:20:38.488Z,993.23
2017-03-05T05:21:47.499Z,993.21
2017-03-05T05:22:56.486Z,993.31
2017-03-05T05:24:05.742Z,993.34
2017-03-05T05:25:14.733Z,993.29
2017-03-05T05:26:24.240Z,993.33
2017-03-05T05:27:33.628Z,993.38
2017-03-05T05:28:42.606Z,993.36
2017-03-05T05:29:51.979Z,993.39
2017-03-05T05:31:00.975Z,993.43
2017-03-05T05:32:10.061Z,993.46
2017-03-05T05:33:19.056Z,993.44
2017-03-05T05:34:28.472Z,993.44
2017-03-05T05:35:37.796Z,993.42
2017-03-05T05:36:47.193Z,993.44
2017-03-05T05:37:56.171Z,993.42
2017-03-05T05:39:05.167Z,993.46
2017-03-05T05:40:14.647Z,993.51
2017-03-05T05:41:23.893Z,993.49
2017-03-05T05:42:32.876Z,993.56
2017-03-05T05:43:41.959Z,993.59
2017-03-05T05:44:51.034Z,993.6
2017-03-05T05:46:00.041Z,993.57
2017-03-05T05:47:09.275Z,993.58
2017-03-05T05:48:18.278Z,993.65
2017-03-05T05:49:27.279Z,993.65
2017-03-05T05:50:36.288Z,993.7
2017-03-05T05:51:45.288Z,993.69
2017-03-05T05:52:54.914Z,993.69
2017-03-05T05:54:04.007Z,993.72
2017-03-05T05:55:12.997Z,993.77
2017-03-05T05:56:22.089Z,993.77
2017-03-05T05:57:31.106Z,993.8
2017-03-05T05:58:40.412Z,993.82
2017-03-05T05:59:49.395Z,993.8
2017-03-05T06:00:58.391Z,993.83
2017-03-05T06:02:07.378Z,993.87
2017-03-05T06:03:16.352Z,993.88
2017-03-05T06:04:25.689Z,993.91
2017-03-05T06:05:34.684Z,994.01
2017-03-05T06:06:44.072Z,993.97
2017-03-05T06:07:53.076Z,994
2017-03-05T06:09:02.078Z,993.99
2017-03-05T06:10:11.353Z,993.99
2017-03-05T06:11:20.745Z,994.07
2017-03-05T06:12:30.170Z,994.08
2017-03-05T06:13:39.573Z,994.13
2017-03-05T06:14:48.672Z,994.08
2017-03-05T06:15:57.902Z,994.11
2017-03-05T06:17:06.992Z,994.13
2017-03-05T06:18:16.060Z,994.15
2017-03-05T06:19:25.043Z,994.14
2017-03-05T06:20:34.072Z,994.22
2017-03-05T06:21:43.301Z,994.19
2017-03-05T06:22:52.289Z,994.23
2017-03-05T06:24:01.280Z,994.25
2017-03-05T06:25:10.267Z,994.28
2017-03-05T06:26:19.246Z,994.27
2017-03-05T06:27:28.524Z,994.36
2017-03-05T06:28:37.530Z,994.34
2017-03-05T06:29:46.536Z,994.37
2017-03-05T06:30:55.605Z,994.39
2017-03-05T06:32:05.023Z,994.39
2017-03-05T06:33:14.296Z,994.37
2017-03-05T06:34:23.285Z,994.42
2017-03-05T06:35:32.669Z,994.4
2017-03-05T06:36:41.786Z,994.49
2017-03-05T06:37:51.196Z,994.51
2017-03-05T06:39:00.478Z,994.51
2017-03-05T06:40:09.473Z,994.56
2017-03-05T06:41:18.465Z,994.62
2017-03-05T06:42:27.471Z,994.61
2017-03-05T06:43:36.468Z,994.66
2017-03-05T06:44:45.750Z,994.65
2017-03-05T06:45:54.777Z,994.63
2017-03-05T06:47:03.780Z,994.69
2017-03-05T06:48:12.788Z,994.66
2017-03-05T06:49:21.798Z,994.72
2017-03-05T06:50:31.028Z,994.74
2017-03-05T06:51:40.024Z,994.74
2017-03-05T06:52:49.009Z,994.73
2017-03-05T06:53:57.987Z,994.71
2017-03-05T06:55:07.069Z,994.75
2017-03-05T06:56:16.376Z,994.82
2017-03-05T06:57:25.356Z,994.78
2017-03-05T06:58:34.351Z,994.87
2017-03-05T06:59:43.332Z,994.83
2017-03-05T07:00:52.334Z,994.82
2017-03-05T07:02:01.613Z,994.86
2017-03-05T07:03:10.600Z,994.86
2017-03-05T07:04:19.590Z,994.86
2017-03-05T07:05:28.988Z,994.89
2017-03-05T07:06:37.969Z,994.89
2017-03-05T07:07:47.290Z,994.94
2017-03-05T07:08:56.287Z,994.9
2017-03-05T07:10:05.282Z,994.95
2017-03-05T07:11:14.260Z,994.96
2017-03-05T07:12:23.255Z,995.02
2017-03-05T07:13:32.242Z,995
2017-03-05T07:14:41.218Z,995.06
2017-03-05T07:15:50.215Z,995.09
2017-03-05T07:16:59.628Z,995.18
2017-03-05T07:18:08.920Z,995.12
2017-03-05T07:19:17.907Z,995.19
2017-03-05T07:20:26.910Z,995.23
2017-03-05T07:21:36.301Z,995.28
2017-03-05T07:22:45.295Z,995.24
2017-03-05T07:23:54.583Z,995.28
2017-03-05T07:25:03.585Z,995.29
2017-03-05T07:26:12.572Z,995.28
2017-03-05T07:27:21.560Z,995.28
2017-03-05T07:28:30.555Z,995.32
2017-03-05T07:29:39.858Z,995.39
2017-03-05T07:30:49.276Z,995.45
2017-03-05T07:31:58.665Z,995.46
2017-03-05T07:33:07.752Z,995.47
2017-03-05T07:34:16.740Z,995.46
2017-03-05T07:35:26.134Z,995.55
2017-03-05T07:36:35.134Z,995.52
2017-03-05T07:37:44.112Z,995.55
2017-03-05T07:38:53.105Z,995.57
2017-03-05T07:40:02.100Z,995.59
2017-03-05T07:41:11.884Z,995.56
2017-03-05T07:42:20.873Z,995.6
2017-03-05T07:43:30.272Z,995.65
2017-03-05T07:44:39.286Z,995.61
2017-03-05T07:45:48.412Z,995.62
2017-03-05T07:46:57.708Z,995.63
2017-03-05T07:48:06.797Z,995.61
2017-03-05T07:49:15.801Z,995.62
2017-03-05T07:50:24.805Z,995.66
2017-03-05T07:51:33.886Z,995.59
2017-03-05T07:52:43.572Z,995.68
2017-03-05T07:53:52.548Z,995.69
2017-03-05T07:55:01.548Z,995.74
2017-03-05T07:56:10.651Z,995.82
2017-03-05T07:57:19.630Z,995.71
2017-03-05T07:58:28.886Z,995.71
2017-03-05T07:59:37.875Z,995.79
2017-03-05T08:00:46.868Z,995.72
2017-03-05T08:01:55.862Z,995.74
2017-03-05T08:03:04.854Z,995.73
2017-03-05T08:04:14.138Z,995.74
2017-03-05T08:05:23.163Z,995.7
2017-03-05T08:06:32.159Z,995.73
2017-03-05T08:07:41.243Z,995.78
2017-03-05T08:08:50.246Z,995.79
2017-03-05T08:09:59.531Z,995.78
2017-03-05T08:11:08.524Z,995.81
2017-03-05T08:12:17.515Z,995.82
2017-03-05T08:13:26.678Z,995.9
2017-03-05T08:14:35.670Z,995.94
2017-03-05T08:15:45.002Z,995.9
2017-03-05T08:16:54.396Z,995.91
2017-03-05T08:18:03.385Z,995.92
2017-03-05T08:19:12.466Z,995.92
2017-03-05T08:20:21.971Z,995.96
2017-03-05T08:21:31.214Z,995.97
2017-03-05T08:22:40.228Z,995.97
2017-03-05T08:23:49.217Z,995.95
2017-03-05T08:24:58.207Z,995.95
2017-03-05T08:26:07.361Z,995.98
2017-03-05T08:27:17.093Z,995.99
2017-03-05T08:28:26.089Z,996.02
2017-03-05T08:29:35.511Z,996.05
2017-03-05T08:30:44.500Z,995.99
2017-03-05T08:31:53.504Z,996.03
2017-03-05T08:33:03.297Z,996.1
2017-03-05T08:34:12.367Z,996.1
2017-03-05T08:35:21.373Z,996.04
2017-03-05T08:36:30.349Z,996.16
2017-03-05T08:37:39.331Z,996.08
2017-03-05T08:38:48.563Z,996.1
2017-03-05T08:39:57.551Z,996.13
2017-03-05T08:41:06.541Z,996.13
2017-03-05T08:42:15.565Z,996.17
2017-03-05T08:43:24.560Z,996.16
2017-03-05T08:44:33.810Z,996.24
2017-03-05T08:45:42.790Z,996.21
2017-03-05T08:46:51.767Z,996.17
2017-03-05T08:48:00.770Z,996.23
2017-03-05T08:49:09.782Z,996.26
2017-03-05T08:50:19.491Z,996.25
2017-03-05T08:51:28.492Z,996.31
2017-03-05T08:52:37.468Z,996.38
2017-03-05T08:53:46.553Z,996.34
2017-03-05T08:54:55.548Z,996.34
2017-03-05T08:56:04.811Z,996.39
2017-03-05T08:57:13.826Z,996.44
2017-03-05T08:58:22.807Z,996.43
2017-03-05T08:59:31.803Z,996.43
2017-03-05T09:00:40.826Z,996.5
2017-03-05T09:01:50.224Z,996.5
2017-03-05T09:03:00.115Z,996.51
2017-03-05T09:04:09.106Z,996.61
2017-03-05T09:05:18.087Z,996.6
2017-03-05T09:06:27.086Z,996.62
2017-03-05T09:07:36.185Z,996.68
2017-03-05T09:08:45.179Z,996.7
2017-03-05T09:09:54.685Z,996.7
2017-03-05T09:11:03.676Z,996.75
2017-03-05T09:12:12.741Z,996.7
2017-03-05T09:13:22.040Z,996.7
2017-03-05T09:14:31.042Z,996.75
2017-03-05T09:15:40.065Z,996.75
2017-03-05T09:16:49.072Z,996.72
2017-03-05T09:17:58.069Z,996.75
2017-03-05T09:19:07.066Z,996.78
2017-03-05T09:20:16.055Z,996.8
2017-03-05T09:21:25.051Z,996.84
2017-03-05T09:22:34.031Z,996.81
2017-03-05T09:23:43.313Z,996.87
2017-03-05T09:24:52.318Z,996.9
2017-03-05T09:26:01.313Z,996.89
2017-03-05T09:27:10.333Z,996.9
2017-03-05T09:28:20.000Z,996.98
2017-03-05T09:29:29.004Z,996.97
2017-03-05T09:30:38.069Z,997.04
2017-03-05T09:31:47.246Z,996.99
2017-03-05T09:32:56.457Z,996.97
2017-03-05T09:34:05.937Z,997
2017-03-05T09:35:14.988Z,996.98
2017-03-05T09:36:24.114Z,996.98
2017-03-05T09:37:33.192Z,997.06
2017-03-05T09:38:42.317Z,997.14
2017-03-05T09:39:51.638Z,997.15
2017-03-05T09:41:00.649Z,997.13
2017-03-05T09:42:09.746Z,997.12
2017-03-05T09:43:18.735Z,997.15
2017-03-05T09:44:27.712Z,997.04
2017-03-05T09:45:37.020Z,997.14
2017-03-05T09:46:46.061Z,997.22
2017-03-05T09:47:55.090Z,997.18
2017-03-05T09:49:04.317Z,997.17
2017-03-05T09:50:13.368Z,997.17
2017-03-05T09:51:22.855Z,997.18
2017-03-05T09:52:31.954Z,997.18
2017-03-05T09:53:41.099Z,997.21
2017-03-05T09:54:50.329Z,997.19
2017-03-05T09:55:59.333Z,997.27
2017-03-05T09:57:08.594Z,997.21
2017-03-05T09:58:17.607Z,997.25
2017-03-05T09:59:26.923Z,997.24
2017-03-05T10:00:35.990Z,997.27
2017-03-05T10:01:45.022Z,997.31
2017-03-05T10:02:54.331Z,997.35
2017-03-05T10:04:03.323Z,997.23
2017-03-05T10:05:12.444Z,997.38
2017-03-05T10:06:21.907Z,997.4
2017-03-05T10:07:31.115Z,997.26
2017-03-05T10:08:40.838Z,997.31
2017-03-05T10:09:49.940Z,997.33
2017-03-05T10:10:58.928Z,997.29
2017-03-05T10:12:08.084Z,997.34
2017-03-05T10:13:17.225Z,997.36
2017-03-05T10:14:26.645Z,997.34
2017-03-05T10:15:35.743Z,997.41
2017-03-05T10:16:44.718Z,997.37
2017-03-05T10:17:53.773Z,997.34
2017-03-05T10:19:02.850Z,997.38
2017-03-05T10:20:12.102Z,997.36
2017-03-05T10:21:21.202Z,997.37
2017-03-05T10:22:30.231Z,997.36
2017-03-05T10:23:39.368Z,997.41
2017-03-05T10:24:48.540Z,997.39
2017-03-05T10:25:58.008Z,997.44
2017-03-05T10:27:07.133Z,997.55
2017-03-05T10:28:16.148Z,997.42
2017-03-05T10:29:25.537Z,997.49
2017-03-05T10:30:34.556Z,997.51
2017-03-05T10:31:43.828Z,997.46
2017-03-05T10:32:52.809Z,997.5
2017-03-05T10:34:01.794Z,997.47
2017-03-05T10:35:10.787Z,997.46
2017-03-05T10:36:19.791Z,997.51
2017-03-05T10:37:29.032Z,997.56
2017-03-05T10:38:38.094Z,997.59
2017-03-05T10:39:47.102Z,997.57
2017-03-05T10:40:56.155Z,997.57
2017-03-05T10:42:06.035Z,997.66
2017-03-05T10:43:15.429Z,997.61
2017-03-05T10:44:24.443Z,997.53
2017-03-05T10:45:33.580Z,997.61
2017-03-05T10:46:42.638Z,997.63
2017-03-05T10:47:51.870Z,997.68
2017-03-05T10:49:01.179Z,997.6
2017-03-05T10:50:10.188Z,997.63
2017-03-05T10:51:19.189Z,997.62
2017-03-05T10:52:28.193Z,997.58
2017-03-05T10:53:37.274Z,997.65
2017-03-05T10:54:46.605Z,997.65
2017-03-05T10:55:55.843Z,997.62
2017-03-05T10:57:04.847Z,997.57
2017-03-05T10:58:13.928Z,997.57
2017-03-05T10:59:24.070Z,997.58
2017-03-05T11:00:33.361Z,997.58
2017-03-05T11:01:42.462Z,997.6
2017-03-05T11:02:51.454Z,997.56
2017-03-05T11:04:00.452Z,997.55
2017-03-05T11:05:09.431Z,997.61
2017-03-05T11:06:18.758Z,997.62
2017-03-05T11:07:27.752Z,997.66
2017-03-05T11:08:36.740Z,997.61
2017-03-05T11:09:46.149Z,997.59
2017-03-05T11:10:55.134Z,997.64
2017-03-05T11:12:04.451Z,997.59
2017-03-05T11:13:13.484Z,997.61
2017-03-05T11:14:22.614Z,997.63
2017-03-05T11:15:31.666Z,997.61
2017-03-05T11:16:40.748Z,997.62
2017-03-05T11:17:50.005Z,997.66
2017-03-05T11:18:59.162Z,997.57
2017-03-05T11:20:08.221Z,997.63
2017-03-05T11:21:17.204Z,997.58
2017-03-05T11:22:26.205Z,997.53
2017-03-05T11:23:35.555Z,997.58
2017-03-05T11:24:44.597Z,997.56
2017-03-05T11:25:53.712Z,997.54
2017-03-05T11:27:02.716Z,997.55
2017-03-05T11:28:12.133Z,997.57
2017-03-05T11:29:21.639Z,997.59
2017-03-05T11:30:30.633Z,997.56
2017-03-05T11:31:39.789Z,997.59
2017-03-05T11:32:48.783Z,997.62
2017-03-05T11:33:57.805Z,997.64
2017-03-05T11:35:07.193Z,997.54
2017-03-05T11:36:16.858Z,997.59
2017-03-05T11:37:26.517Z,997.58
2017-03-05T11:38:35.694Z,997.57
2017-03-05T11:39:44.914Z,997.51
2017-03-05T11:40:54.374Z,997.55
2017-03-05T11:42:03.366Z,997.54
2017-03-05T11:43:12.992Z,997.49
2017-03-05T11:44:22.082Z,997.5
2017-03-05T11:45:31.092Z,997.47
2017-03-05T11:46:40.996Z,997.47
2017-03-05T11:47:50.016Z,997.48
2017-03-05T11:48:59.016Z,997.45
2017-03-05T11:50:08.016Z,997.47
2017-03-05T11:51:17.341Z,997.42
2017-03-05T11:52:29.608Z,997.46
2017-03-05T11:53:38.598Z,997.48
2017-03-05T11:54:47.598Z,997.43
2017-03-05T11:55:56.834Z,997.45
2017-03-05T11:57:05.965Z,997.43
2017-03-05T11:58:15.356Z,997.44
2017-03-05T11:59:24.480Z,997.45
2017-03-05T12:00:33.476Z,997.45
2017-03-05T12:01:42.543Z,997.47
2017-03-05T12:02:52.077Z,997.5
2017-03-05T12:04:01.383Z,997.54
2017-03-05T12:05:10.593Z,997.57
2017-03-05T12:06:19.590Z,997.55
2017-03-05T12:07:28.693Z,997.55
2017-03-05T12:08:37.684Z,997.58
2017-03-05T12:09:46.939Z,997.55
2017-03-05T12:10:56.343Z,997.56
2017-03-05T12:12:05.407Z,997.54
2017-03-05T12:13:14.971Z,997.52
2017-03-05T12:14:23.956Z,997.52
2017-03-05T12:15:33.208Z,997.49
2017-03-05T12:16:42.193Z,997.49
2017-03-05T12:17:51.212Z,997.49
2017-03-05T12:19:00.263Z,997.47
2017-03-05T12:20:09.311Z,997.48
2017-03-05T12:21:18.567Z,997.46
2017-03-05T12:22:27.571Z,997.44
2017-03-05T12:23:36.723Z,997.46
2017-03-05T12:24:45.736Z,997.45
2017-03-05T12:25:54.757Z,997.44
2017-03-05T12:27:03.987Z,997.4
2017-03-05T12:28:13.078Z,997.48
2017-03-05T12:29:22.081Z,997.48
2017-03-05T12:30:31.090Z,997.43
2017-03-05T12:31:40.077Z,997.48
2017-03-05T12:32:49.442Z,997.47
2017-03-05T12:33:58.450Z,997.46
2017-03-05T12:35:07.846Z,997.48
2017-03-05T12:36:16.843Z,997.44
2017-03-05T12:37:25.838Z,997.44
2017-03-05T12:38:35.129Z,997.44
2017-03-05T12:39:44.110Z,997.43
2017-03-05T12:40:53.104Z,997.42
2017-03-05T12:42:02.500Z,997.42
2017-03-05T12:43:11.488Z,997.44
2017-03-05T12:44:20.728Z,997.44
2017-03-05T12:45:29.799Z,997.44
2017-03-05T12:46:38.801Z,997.45
2017-03-05T12:47:47.786Z,997.47
2017-03-05T12:48:56.782Z,997.43
2017-03-05T12:50:06.524Z,997.46
2017-03-05T12:51:15.537Z,997.45
2017-03-05T12:52:24.623Z,997.44
2017-03-05T12:53:33.605Z,997.49
2017-03-05T12:54:42.659Z,997.49
2017-03-05T12:55:51.898Z,997.45
2017-03-05T12:57:00.891Z,997.49
2017-03-05T12:58:09.902Z,997.49
2017-03-05T12:59:18.909Z,997.5
2017-03-05T13:00:28.727Z,997.53
2017-03-05T13:01:37.967Z,997.47
2017-03-05T13:02:46.960Z,997.45
2017-03-05T13:03:55.965Z,997.4
2017-03-05T13:05:04.970Z,997.39
2017-03-05T13:06:13.951Z,997.37
2017-03-05T13:07:23.247Z,997.34
2017-03-05T13:08:32.439Z,997.42
2017-03-05T13:09:41.851Z,997.4
2017-03-05T13:10:50.994Z,997.41
2017-03-05T13:12:00.125Z,997.38
2017-03-05T13:13:09.711Z,997.39
2017-03-05T13:14:18.745Z,997.37
2017-03-05T13:15:27.759Z,997.43
2017-03-05T13:16:36.853Z,997.41
2017-03-05T13:17:45.846Z,997.41
2017-03-05T13:18:55.189Z,997.4
2017-03-05T13:20:04.209Z,997.42
2017-03-05T13:21:13.470Z,997.41
2017-03-05T13:22:22.731Z,997.39
2017-03-05T13:23:31.970Z,997.39
2017-03-05T13:24:41.408Z,997.42
2017-03-05T13:25:50.454Z,997.38
2017-03-05T13:26:59.445Z,997.38
2017-03-05T13:28:08.450Z,997.37
2017-03-05T13:29:17.432Z,997.32
2017-03-05T13:30:26.749Z,997.33
2017-03-05T13:31:35.766Z,997.38
2017-03-05T13:32:44.763Z,997.38
2017-03-05T13:33:53.736Z,997.39
2017-03-05T13:35:02.746Z,997.41
2017-03-05T13:36:12.437Z,997.47
2017-03-05T13:37:21.438Z,997.43
2017-03-05T13:38:30.523Z,997.43
2017-03-05T13:39:39.517Z,997.43
2017-03-05T13:40:48.510Z,997.43
2017-03-05T13:41:57.802Z,997.4
2017-03-05T13:43:06.781Z,997.44
2017-03-05T13:44:15.776Z,997.42
2017-03-05T13:45:24.786Z,997.46
2017-03-05T13:46:33.774Z,997.42
2017-03-05T13:47:42.782Z,997.42
2017-03-05T13:48:51.777Z,997.38
2017-03-05T13:50:01.170Z,997.41
2017-03-05T13:51:10.204Z,997.45
2017-03-05T13:52:19.217Z,997.39
2017-03-05T13:53:28.202Z,997.41
2017-03-05T13:54:37.206Z,997.38
2017-03-05T13:55:46.278Z,997.41
2017-03-05T13:56:55.269Z,997.37
2017-03-05T13:58:04.253Z,997.37
2017-03-05T13:59:13.239Z,997.37
2017-03-05T14:00:22.237Z,997.36
2017-03-05T14:01:31.801Z,997.33
2017-03-05T14:02:40.791Z,997.37
2017-03-05T14:03:49.785Z,997.37
2017-03-05T14:04:58.766Z,997.38
2017-03-05T14:06:07.761Z,997.34
2017-03-05T14:07:17.164Z,997.34
2017-03-05T14:08:26.149Z,997.34
2017-03-05T14:09:35.225Z,997.35
2017-03-05T14:10:44.712Z,997.31
2017-03-05T14:11:53.928Z,997.3
2017-03-05T14:13:03.222Z,997.3
2017-03-05T14:14:12.218Z,997.3
2017-03-05T14:15:21.221Z,997.27
2017-03-05T14:16:30.210Z,997.25
2017-03-05T14:17:39.223Z,997.21
2017-03-05T14:18:48.533Z,997.23
2017-03-05T14:19:57.511Z,997.21
2017-03-05T14:21:06.584Z,997.22
2017-03-05T14:22:15.593Z,997.29
2017-03-05T14:23:24.584Z,997.27
2017-03-05T14:24:33.976Z,997.27
2017-03-05T14:25:43.018Z,997.27